Preview of NWS' New Version of Forecast
This preview is not operational and should not be used for support decisions.

Terminal Aerodrome Forecast (TAF)

Issued by National Weather Service (NWS)

                            
000
FTUS42 KCAE 241128
TAFOGB
TAF
KOGB 241128Z 2412/2512 06003KT P6SM SCT006
     FM241400 06004KT P6SM SCT020
     FM242100 06006KT P6SM -SHRA OVC025
     FM250200 05008KT 6SM BR OVC007=